FredonyerEastRWIS Atmospheric Data: 01/14/2020 Summary  Detailed Graphs  Station List

  Temperature     Wind Precipitation Visibility
Timestamp Air Wet
Bulb
Dew-
point
24-hr
Max
24-hr
Min
Relative
Humidity
Atmospheric
Pressure
Avg
Speed
Avg
Dir
Spot
Speed
Spot
Dir
Max
Speed
Max
Dir
  Rate Situation Start End 1 hr 3 hr 6 hr 12 hr 24 hr   Situation
Date Time °F °F °F °F °F % in Hg mph ° mph ° mph ° Y/N in/hr text Date Time Date Time in in in in in mi text
01/14/2020 12:08 AM 33.08 31.46 28.58 36.86 26.78 82.0 Not Reported 8.05 SW 7.61 E 12.30 SW No 0.000 No Precipitation 01/13/2020 08:58 PM 01/13/2020 09:03 PM 0.000 0.008 0.008 0.039 0.039 Not Reported Not Reported
01/14/2020 12:23 AM 33.08 31.46 28.40 36.86 26.78 82.0 Not Reported 6.04 SE 3.36 S 17.00 SE No 0.000 No Precipitation 01/13/2020 08:58 PM 01/13/2020 09:03 PM 0.000 0.008 0.008 0.039 0.039 Not Reported Not Reported
01/14/2020 12:38 AM 33.26 31.28 27.68 36.86 26.78 78.0 Not Reported 7.38 SW 11.41 SE 12.53 S No 0.000 No Precipitation 01/13/2020 08:58 PM 01/13/2020 09:03 PM 0.000 0.004 0.008 0.039 0.039 Not Reported Not Reported
01/14/2020 12:53 AM 32.54 31.10 28.40 36.86 26.78 83.0 Not Reported 7.83 S 5.37 S 9.62 SE No 0.000 No Precipitation 01/13/2020 08:58 PM 01/13/2020 09:03 PM 0.000 0.004 0.008 0.039 0.039 Not Reported Not Reported
01/14/2020 01:08 AM 32.72 30.74 26.96 36.86 26.78 78.0 Not Reported 8.50 SW 8.72 SE 13.20 SW No 0.000 No Precipitation 01/13/2020 08:58 PM 01/13/2020 09:03 PM 0.000 0.000 0.008 0.039 0.039 Not Reported Not Reported
01/14/2020 01:23 AM 32.36 30.02 25.52 36.86 26.78 75.0 Not Reported 8.50 SW 5.82 S 12.75 SW No 0.000 No Precipitation 01/13/2020 08:58 PM 01/13/2020 09:03 PM 0.000 0.000 0.008 0.039 0.039 Not Reported Not Reported
01/14/2020 01:38 AM 32.00 29.66 25.16 36.86 26.78 75.0 Not Reported 4.70 SW 2.24 NW 9.84 W No 0.000 No Precipitation 01/13/2020 08:58 PM 01/13/2020 09:03 PM 0.000 0.000 0.008 0.039 0.039 Not Reported Not Reported
01/14/2020 01:53 AM 32.00 29.30 24.80 36.86 26.78 74.0 Not Reported 7.16 W 0.89 W 11.18 SW No 0.000 No Precipitation 01/13/2020 08:58 PM 01/13/2020 09:03 PM 0.000 0.000 0.008 0.039 0.039 Not Reported Not Reported
01/14/2020 02:08 AM 31.64 28.94 23.90 36.86 26.78 73.0 Not Reported 6.71 SW 6.49 SW 11.86 SE No 0.000 No Precipitation 01/13/2020 08:58 PM 01/13/2020 09:03 PM 0.000 0.000 0.008 0.039 0.039 Not Reported Not Reported
01/14/2020 02:23 AM 31.28 28.76 24.26 36.86 26.78 74.0 Not Reported 5.14 W 7.38 W 9.17 SE No 0.000 No Precipitation 01/13/2020 08:58 PM 01/13/2020 09:03 PM 0.000 0.000 0.008 0.035 0.039 Not Reported Not Reported
01/14/2020 02:38 AM 30.74 28.40 24.26 36.86 26.78 76.0 Not Reported 3.58 W 3.36 SW 11.63 SE No 0.000 No Precipitation 01/13/2020 08:58 PM 01/13/2020 09:03 PM 0.000 0.000 0.008 0.028 0.039 Not Reported Not Reported
01/14/2020 02:53 AM 30.92 28.94 25.52 36.86 26.78 79.0 Not Reported 6.71 SW 6.93 W 13.87 SW No 0.000 No Precipitation 01/13/2020 08:58 PM 01/13/2020 09:03 PM 0.000 0.000 0.008 0.020 0.039 Not Reported Not Reported
01/14/2020 03:08 AM 31.10 29.12 25.52 36.86 26.78 79.0 Not Reported 8.05 SW 8.72 S 11.86 SW No 0.000 No Precipitation 01/13/2020 08:58 PM 01/13/2020 09:03 PM 0.000 0.000 0.008 0.020 0.039 Not Reported Not Reported
01/14/2020 03:23 AM 31.28 28.94 24.80 36.86 26.78 76.0 Not Reported 6.04 W 3.80 W 12.30 W No 0.000 No Precipitation 01/13/2020 08:58 PM 01/13/2020 09:03 PM 0.000 0.000 0.008 0.016 0.039 Not Reported Not Reported
01/14/2020 03:38 AM 31.28 28.94 24.80 36.86 26.78 76.0 Not Reported 3.36 SW 4.92 W 8.72 SW No 0.000 No Precipitation 01/13/2020 08:58 PM 01/13/2020 09:03 PM 0.000 0.000 0.004 0.008 0.039 Not Reported Not Reported
01/14/2020 03:53 AM 30.56 28.76 25.70 36.86 26.78 82.0 Not Reported 5.59 SW 4.70 W 9.40 NW No 0.000 No Precipitation 01/13/2020 08:58 PM 01/13/2020 09:03 PM 0.000 0.000 0.004 0.008 0.039 Not Reported Not Reported
01/14/2020 04:08 AM 30.92 28.76 24.44 36.86 26.78 76.0 Not Reported 3.36 W 6.04 W 11.86 W No 0.000 No Precipitation 01/13/2020 08:58 PM 01/13/2020 09:03 PM 0.000 0.000 0.000 0.008 0.039 Not Reported Not Reported
01/14/2020 04:23 AM 30.56 28.40 24.62 36.86 26.78 77.0 Not Reported 7.83 SW 2.46 W 10.51 SW No 0.000 No Precipitation 01/13/2020 08:58 PM 01/13/2020 09:03 PM 0.000 0.000 0.000 0.008 0.039 Not Reported Not Reported
01/14/2020 04:38 AM 30.02 28.40 25.52 36.86 26.78 83.0 Not Reported 2.24 W 3.36 NW 10.96 SW No 0.000 No Precipitation 01/13/2020 08:58 PM 01/13/2020 09:03 PM 0.000 0.000 0.000 0.008 0.039 Not Reported Not Reported
01/14/2020 04:53 AM 29.48 27.86 24.80 36.86 26.78 82.0 Not Reported 8.72 W 9.17 W 12.75 NW No 0.000 No Precipitation 01/13/2020 08:58 PM 01/13/2020 09:03 PM 0.000 0.000 0.000 0.008 0.039 Not Reported Not Reported
01/14/2020 05:08 AM 27.86 26.96 25.52 36.86 26.78 90.0 Not Reported 4.70 SW 1.57 W 10.74 S Yes 0.043 Rain Slight 01/14/2020 04:06 AM   0.004 0.004 0.004 0.016 0.039 Not Reported Not Reported
01/14/2020 05:23 AM 27.68 26.60 24.80 36.86 26.78 88.0 Not Reported 3.13 SE 5.59 SW 7.16 SW No 0.000 No Precipitation 01/14/2020 04:06 AM 01/14/2020 04:11 AM 0.004 0.004 0.004 0.016 0.039 Not Reported Not Reported
01/14/2020 05:38 AM 27.50 26.60 24.62 36.86 26.78 88.0 Not Reported 3.80 S 2.24 SE 7.16 W No 0.000 No Precipitation 01/14/2020 04:06 AM 01/14/2020 04:11 AM 0.004 0.004 0.004 0.016 0.039 Not Reported Not Reported
01/14/2020 05:53 AM 27.86 26.24 23.36 36.86 26.78 83.0 Not Reported 3.13 W 6.49 W 7.16 SW No 0.000 No Precipitation 01/14/2020 04:06 AM 01/14/2020 04:11 AM 0.004 0.004 0.004 0.016 0.039 Not Reported Not Reported
01/14/2020 06:08 AM 28.04 26.24 22.82 36.86 26.78 81.0 Not Reported 3.36 W 2.01 NW 10.29 SW No 0.000 No Precipitation 01/14/2020 04:06 AM 01/14/2020 04:11 AM 0.000 0.004 0.004 0.016 0.039 Not Reported Not Reported
01/14/2020 06:23 AM 27.50 25.70 21.74 36.86 26.78 78.0 Not Reported 4.70 S 4.03 E 8.28 SW No 0.000 No Precipitation 01/14/2020 04:06 AM 01/14/2020 04:11 AM 0.000 0.004 0.004 0.016 0.039 Not Reported Not Reported
01/14/2020 06:38 AM 27.14 24.98 20.66 36.86 26.78 76.0 Not Reported 3.13 SE 2.46 W 9.84 W No 0.000 No Precipitation 01/14/2020 04:06 AM 01/14/2020 04:11 AM 0.000 0.004 0.004 0.016 0.039 Not Reported Not Reported
01/14/2020 06:53 AM 26.96 24.80 20.48 36.86 26.78 76.0 Not Reported 4.25 W 3.58 SW 10.74 W No 0.000 No Precipitation 01/14/2020 04:06 AM 01/14/2020 04:11 AM 0.000 0.004 0.004 0.016 0.039 Not Reported Not Reported
01/14/2020 07:08 AM 26.78 24.80 20.66 36.86 26.60 77.0 Not Reported 4.70 W 2.91 E 6.93 W No 0.000 No Precipitation 01/14/2020 04:06 AM 01/14/2020 04:11 AM 0.000 0.004 0.004 0.016 0.039 Not Reported Not Reported
01/14/2020 07:23 AM 26.42 24.62 20.48 36.86 26.42 77.0 Not Reported 2.91 S 2.68 NW 8.28 S No 0.000 No Precipitation 01/14/2020 04:06 AM 01/14/2020 04:11 AM 0.000 0.004 0.004 0.016 0.039 Not Reported Not Reported
01/14/2020 07:38 AM 26.42 24.62 20.66 36.86 26.24 78.0 Not Reported 4.25 W 4.47 W 9.62 SW No 0.000 No Precipitation 01/14/2020 04:06 AM 01/14/2020 04:11 AM 0.000 0.004 0.004 0.016 0.039 Not Reported Not Reported
01/14/2020 07:53 AM 26.78 24.80 20.30 36.86 26.24 76.0 Not Reported 3.58 S 4.70 SW 8.28 SE No 0.000 No Precipitation 01/14/2020 04:06 AM 01/14/2020 04:11 AM 0.000 0.004 0.004 0.016 0.039 Not Reported Not Reported
01/14/2020 08:08 AM 26.96 24.80 20.30 36.86 26.24 75.0 Not Reported 4.47 SW 2.01 SW 9.84 W No 0.000 No Precipitation 01/14/2020 04:06 AM 01/14/2020 04:11 AM 0.000 0.000 0.004 0.008 0.039 Not Reported Not Reported
01/14/2020 08:23 AM 27.50 25.34 20.84 36.86 26.24 75.0 Not Reported 5.59 SW 5.82 S 9.84 S No 0.000 No Precipitation 01/14/2020 04:06 AM 01/14/2020 04:11 AM 0.000 0.000 0.004 0.008 0.039 Not Reported Not Reported
01/14/2020 08:38 AM 27.50 25.34 20.48 36.86 26.24 74.0 Not Reported 5.37 S 2.01 W 8.28 SW No 0.000 No Precipitation 01/14/2020 04:06 AM 01/14/2020 04:11 AM 0.000 0.000 0.004 0.008 0.039 Not Reported Not Reported
01/14/2020 08:53 AM 27.86 25.34 20.30 36.86 26.24 73.0 Not Reported 5.59 SW 4.92 SW 8.50 W No 0.000 No Precipitation 01/14/2020 04:06 AM 01/14/2020 04:11 AM 0.000 0.000 0.004 0.008 0.039 Not Reported Not Reported
01/14/2020 09:09 AM 27.50 25.34 20.84 36.86 26.24 75.0 Not Reported 5.14 SW 3.80 S 10.07 SW No 0.000 No Precipitation 01/14/2020 04:06 AM 01/14/2020 04:11 AM 0.000 0.000 0.004 0.008 0.039 Not Reported Not Reported
01/14/2020 09:23 AM 27.14 25.34 21.92 36.86 26.24 80.0 Not Reported 5.82 S 6.49 NW 8.72 S No 0.000 No Precipitation 01/14/2020 04:06 AM 01/14/2020 04:11 AM 0.000 0.000 0.004 0.008 0.039 Not Reported Not Reported
01/14/2020 09:38 AM 27.32 25.52 21.92 36.86 26.24 80.0 Not Reported 6.26 S 5.59 SW 9.40 SW No 0.000 No Precipitation 01/14/2020 04:06 AM 01/14/2020 04:11 AM 0.000 0.000 0.004 0.008 0.039 Not Reported Not Reported
01/14/2020 09:53 AM 27.14 25.52 22.28 36.86 26.24 81.0 Not Reported 3.36 W 5.82 NW 9.17 W No 0.000 No Precipitation 01/14/2020 04:06 AM 01/14/2020 04:11 AM 0.000 0.000 0.004 0.008 0.039 Not Reported Not Reported
01/14/2020 10:08 AM 26.78 25.70 23.54 36.86 26.24 86.0 Not Reported 4.92 W 3.13 S 8.95 SW No 0.000 No Precipitation 01/14/2020 04:06 AM 01/14/2020 04:11 AM 0.000 0.000 0.004 0.004 0.039 Not Reported Not Reported
01/14/2020 10:23 AM 28.04 26.06 22.10 36.86 26.24 78.0 Not Reported 3.13 W 4.92 SW 8.28 SW No 0.000 No Precipitation 01/14/2020 09:16 AM 01/14/2020 09:21 AM 0.004 0.004 0.008 0.008 0.043 Not Reported Not Reported
01/14/2020 10:38 AM 28.94 26.42 21.38 36.86 26.24 72.0 Not Reported 5.59 SW 4.92 S 10.07 SW No 0.000 No Precipitation 01/14/2020 09:16 AM 01/14/2020 09:21 AM 0.004 0.004 0.008 0.008 0.043 Not Reported Not Reported
01/14/2020 10:53 AM 29.48 26.78 21.38 36.86 26.24 71.0 Not Reported 6.49 W 3.36 NE 9.40 S No 0.000 No Precipitation 01/14/2020 09:16 AM 01/14/2020 09:21 AM 0.004 0.004 0.008 0.008 0.043 Not Reported Not Reported
01/14/2020 11:08 AM 30.20 26.78 20.48 36.86 26.24 67.0 Not Reported 4.03 SW 5.37 SE 14.32 S No 0.000 No Precipitation 01/14/2020 09:16 AM 01/14/2020 09:21 AM 0.004 0.004 0.004 0.008 0.043 Not Reported Not Reported
01/14/2020 11:23 AM 28.94 26.60 22.28 36.86 26.24 76.0 Not Reported 5.14 SW 9.17 SW 9.17 SW No 0.000 No Precipitation 01/14/2020 09:16 AM 01/14/2020 09:21 AM 0.000 0.004 0.004 0.008 0.043 Not Reported Not Reported
01/14/2020 11:39 AM 28.58 26.60 22.64 35.96 26.24 78.0 Not Reported 4.92 SW 4.25 S 8.50 S No 0.000 No Precipitation 01/14/2020 09:16 AM 01/14/2020 09:21 AM 0.000 0.004 0.004 0.008 0.043 Not Reported Not Reported
01/14/2020 11:53 AM 29.30 26.78 22.10 35.24 26.24 74.0 Not Reported 4.03 S 7.61 SW 8.28 W No 0.000 No Precipitation 01/14/2020 10:39 AM 01/14/2020 10:44 AM 0.004 0.008 0.008 0.008 0.051 Not Reported Not Reported
01/14/2020 12:08 PM 30.38 27.50 21.74 33.98 26.24 69.0 Not Reported 2.91 S 1.57 NW 7.83 S No 0.000 No Precipitation 01/14/2020 10:39 AM 01/14/2020 10:44 AM 0.004 0.008 0.008 0.008 0.051 Not Reported Not Reported
01/14/2020 12:23 PM 30.02 27.14 21.74 33.62 26.24 70.0 Not Reported 3.80 W 5.59 SW 8.72 SW No 0.000 No Precipitation 01/14/2020 10:39 AM 01/14/2020 10:44 AM 0.004 0.008 0.008 0.008 0.051 Not Reported Not Reported
01/14/2020 12:38 PM 29.12 27.32 24.08 33.62 26.24 81.0 Not Reported 3.80 S 1.79 SW 6.26 NW No 0.000 No Precipitation 01/14/2020 10:39 AM 01/14/2020 10:44 AM 0.004 0.008 0.008 0.008 0.051 Not Reported Not Reported
01/14/2020 12:53 PM 28.94 26.60 21.74 33.62 26.24 74.0 Not Reported 6.04 S 8.95 SW 12.97 S No 0.000 No Precipitation 01/14/2020 10:39 AM 01/14/2020 10:44 AM 0.000 0.008 0.008 0.008 0.051 Not Reported Not Reported
01/14/2020 01:08 PM 29.66 26.96 21.20 33.62 26.24 70.0 Not Reported 5.82 S 8.95 S 8.95 S No 0.000 No Precipitation 01/14/2020 11:55 AM 01/14/2020 12:00 PM 0.004 0.008 0.008 0.016 0.055 Not Reported Not Reported
01/14/2020 01:23 PM 29.84 27.14 22.10 33.62 26.24 72.0 Not Reported 3.36 SW 4.25 SW 10.07 S No 0.000 No Precipitation 01/14/2020 11:55 AM 01/14/2020 12:00 PM 0.004 0.008 0.008 0.016 0.055 Not Reported Not Reported
01/14/2020 01:38 PM 30.02 27.50 22.46 33.62 26.24 72.0 Not Reported 4.03 S 2.91 SE 7.83 W No 0.000 No Precipitation 01/14/2020 11:55 AM 01/14/2020 12:00 PM 0.004 0.008 0.008 0.016 0.055 Not Reported Not Reported
01/14/2020 01:53 PM 30.02 27.32 22.28 33.62 26.24 72.0 Not Reported 2.91 NW 3.80 S 7.83 W No 0.000 No Precipitation 01/14/2020 11:55 AM 01/14/2020 12:00 PM 0.004 0.008 0.008 0.016 0.055 Not Reported Not Reported
01/14/2020 02:08 PM 29.48 26.96 22.28 33.62 26.24 74.0 Not Reported 5.82 SW 11.18 S 11.18 S No 0.000 No Precipitation 01/14/2020 11:55 AM 01/14/2020 12:00 PM 0.000 0.008 0.008 0.016 0.055 Not Reported Not Reported
01/14/2020 02:23 PM 30.02 27.14 21.74 33.62 26.24 70.0 Not Reported 4.92 S 7.38 SE 7.83 W No 0.000 No Precipitation 01/14/2020 11:55 AM 01/14/2020 12:00 PM 0.000 0.008 0.008 0.016 0.051 Not Reported Not Reported
01/14/2020 02:38 PM 30.02 27.14 21.74 33.62 26.24 70.0 Not Reported 6.26 NW 2.24 NW 11.63 NW No 0.000 No Precipitation 01/14/2020 11:55 AM 01/14/2020 12:00 PM 0.000 0.008 0.008 0.016 0.039 Not Reported Not Reported
01/14/2020 02:53 PM 30.38 27.32 21.74 33.62 26.24 70.0 Not Reported 3.13 NW 1.34 N 8.05 NW No 0.000 No Precipitation 01/14/2020 11:55 AM 01/14/2020 12:00 PM 0.000 0.004 0.008 0.016 0.039 Not Reported Not Reported
01/14/2020 03:08 PM 30.38 27.32 21.02 33.62 26.24 67.0 Not Reported 2.24 SW 1.57 S 7.38 W No 0.000 No Precipitation 01/14/2020 11:55 AM 01/14/2020 12:00 PM 0.000 0.004 0.008 0.016 0.035 Not Reported Not Reported
01/14/2020 03:23 PM 30.38 27.50 21.56 33.62 26.24 68.0 Not Reported 2.68 W 0.89 W 8.50 S No 0.000 No Precipitation 01/14/2020 11:55 AM 01/14/2020 12:00 PM 0.000 0.004 0.008 0.016 0.031 Not Reported Not Reported
01/14/2020 03:38 PM 30.02 27.32 22.10 33.62 26.24 71.0 Not Reported 3.58 W 2.68 NW 8.50 S No 0.000 No Precipitation 01/14/2020 11:55 AM 01/14/2020 12:00 PM 0.000 0.004 0.008 0.016 0.028 Not Reported Not Reported
01/14/2020 03:53 PM 29.48 27.32 22.82 33.62 26.24 75.0 Not Reported 2.24 NW 1.79 NW 8.05 W No 0.000 No Precipitation 01/14/2020 11:55 AM 01/14/2020 12:00 PM 0.000 0.004 0.008 0.016 0.028 Not Reported Not Reported
01/14/2020 04:08 PM 29.84 27.14 22.46 33.62 26.24 74.0 Not Reported 2.91 NW 6.04 W 6.04 W No 0.000 No Precipitation 01/14/2020 11:55 AM 01/14/2020 12:00 PM 0.000 0.000 0.008 0.016 0.028 Not Reported Not Reported
01/14/2020 04:23 PM 29.48 27.14 22.46 33.62 26.24 74.0 Not Reported 1.79 NW 2.46 NW 6.04 S No 0.000 No Precipitation 01/14/2020 11:55 AM 01/14/2020 12:00 PM 0.000 0.000 0.008 0.016 0.028 Not Reported Not Reported
01/14/2020 04:38 PM 29.48 26.96 22.28 33.62 26.24 74.0 Not Reported 2.01 NW 1.34 SW 5.82 SW No 0.000 No Precipitation 01/14/2020 11:55 AM 01/14/2020 12:00 PM 0.000 0.000 0.008 0.016 0.028 Not Reported Not Reported
01/14/2020 04:53 PM 29.30 26.78 21.56 33.62 26.24 72.0 Not Reported 2.68 SW 2.01 W 5.59 W No 0.000 No Precipitation 01/14/2020 11:55 AM 01/14/2020 12:00 PM 0.000 0.000 0.008 0.016 0.028 Not Reported Not Reported
01/14/2020 05:08 PM 29.30 26.60 21.38 33.62 26.24 71.0 Not Reported 3.80 W 2.91 W 6.71 NW No 0.000 No Precipitation 01/14/2020 11:55 AM 01/14/2020 12:00 PM 0.000 0.000 0.008 0.008 0.028 Not Reported Not Reported
01/14/2020 05:23 PM 29.30 26.42 20.84 33.62 26.24 70.0 Not Reported 2.91 W 2.68 S 7.16 W No 0.000 No Precipitation 01/14/2020 11:55 AM 01/14/2020 12:00 PM 0.000 0.000 0.008 0.008 0.028 Not Reported Not Reported
01/14/2020 05:38 PM 28.94 26.24 20.66 33.62 26.24 70.0 Not Reported 2.46 NW 2.01 SE 6.04 SW No 0.000 No Precipitation 01/14/2020 11:55 AM 01/14/2020 12:00 PM 0.000 0.000 0.008 0.008 0.028 Not Reported Not Reported
01/14/2020 05:53 PM 29.12 26.24 20.12 33.62 26.24 68.0 Not Reported 5.82 SW 7.83 S 8.50 SW No 0.000 No Precipitation 01/14/2020 11:55 AM 01/14/2020 12:00 PM 0.000 0.000 0.004 0.008 0.028 Not Reported Not Reported
01/14/2020 06:08 PM 29.30 26.06 19.76 33.62 26.24 67.0 Not Reported 5.14 S 3.36 NW 9.62 SW No 0.000 No Precipitation 01/14/2020 11:55 AM 01/14/2020 12:00 PM 0.000 0.000 0.004 0.008 0.028 Not Reported Not Reported
01/14/2020 06:23 PM 28.76 26.06 20.12 33.62 26.24 69.0 Not Reported 3.13 W 4.47 SW 6.49 W No 0.000 No Precipitation 01/14/2020 11:55 AM 01/14/2020 12:00 PM 0.000 0.000 0.004 0.008 0.028 Not Reported Not Reported
01/14/2020 06:38 PM 29.12 26.06 19.94 33.62 26.24 68.0 Not Reported 4.70 SW 2.46 SW 6.93 W No 0.000 No Precipitation 01/14/2020 11:55 AM 01/14/2020 12:00 PM 0.000 0.000 0.004 0.008 0.028 Not Reported Not Reported
01/14/2020 06:53 PM 28.94 26.06 19.94 33.62 26.24 68.0 Not Reported 2.68 SW 5.14 W 5.37 SE No 0.000 No Precipitation 01/14/2020 11:55 AM 01/14/2020 12:00 PM 0.000 0.000 0.004 0.008 0.028 Not Reported Not Reported
01/14/2020 07:08 PM 28.58 25.88 19.76 33.62 26.24 69.0 Not Reported 4.03 SW 3.13 S 7.38 SW No 0.000 No Precipitation 01/14/2020 11:55 AM 01/14/2020 12:00 PM 0.000 0.000 0.000 0.008 0.028 Not Reported Not Reported
01/14/2020 07:23 PM 28.22 25.52 19.76 33.62 26.24 70.0 Not Reported 5.37 SW 3.13 W 8.50 SW No 0.000 No Precipitation 01/14/2020 11:55 AM 01/14/2020 12:00 PM 0.000 0.000 0.000 0.008 0.028 Not Reported Not Reported
01/14/2020 07:38 PM 28.04 25.52 20.12 33.62 26.24 72.0 Not Reported 3.58 S 5.59 SW 7.61 W No 0.000 No Precipitation 01/14/2020 11:55 AM 01/14/2020 12:00 PM 0.000 0.000 0.000 0.008 0.028 Not Reported Not Reported
01/14/2020 07:53 PM 27.50 25.34 21.02 33.62 26.24 75.0 Not Reported 4.03 S 3.58 NW 6.26 SW No 0.000 No Precipitation 01/14/2020 11:55 AM 01/14/2020 12:00 PM 0.000 0.000 0.000 0.008 0.028 Not Reported Not Reported
01/14/2020 08:08 PM 27.32 25.16 21.02 33.62 26.24 77.0 Not Reported 2.46 SW 2.01 SE 5.14 SW No 0.000 No Precipitation 01/14/2020 11:55 AM 01/14/2020 12:00 PM 0.000 0.000 0.000 0.008 0.020 Not Reported Not Reported
01/14/2020 08:23 PM 27.32 25.16 20.84 33.62 26.24 76.0 Not Reported 4.92 S 3.36 S 8.72 S No 0.000 No Precipitation 01/14/2020 11:55 AM 01/14/2020 12:00 PM 0.000 0.000 0.000 0.008 0.020 Not Reported Not Reported
01/14/2020 08:38 PM 27.14 25.16 21.02 33.62 26.24 77.0 Not Reported 3.58 W 1.79 SW 6.71 SW No 0.000 No Precipitation 01/14/2020 11:55 AM 01/14/2020 12:00 PM 0.000 0.000 0.000 0.008 0.020 Not Reported Not Reported
01/14/2020 08:53 PM 27.50 25.34 21.20 33.62 26.24 76.0 Not Reported 2.91 SW 2.24 SW 5.82 SW No 0.000 No Precipitation 01/14/2020 11:55 AM 01/14/2020 12:00 PM 0.000 0.000 0.000 0.008 0.020 Not Reported Not Reported
01/14/2020 09:08 PM 27.50 25.34 21.02 33.62 26.24 76.0 Not Reported 4.25 SW 3.80 SW 6.71 SW No 0.000 No Precipitation 01/14/2020 11:55 AM 01/14/2020 12:00 PM 0.000 0.000 0.000 0.008 0.020 Not Reported Not Reported
01/14/2020 09:25 PM 27.68 25.34 20.84 33.62 26.24 75.0 Not Reported 2.01 SE 4.47 SE 6.71 SW No 0.000 No Precipitation 01/14/2020 11:55 AM 01/14/2020 12:00 PM 0.000 0.000 0.000 0.008 0.020 Not Reported Not Reported
01/14/2020 09:38 PM 27.68 25.52 20.84 33.62 26.24 75.0 Not Reported 1.79 S 4.92 S 4.92 S No 0.000 No Precipitation 01/14/2020 11:55 AM 01/14/2020 12:00 PM 0.000 0.000 0.000 0.008 0.020 Not Reported Not Reported
01/14/2020 09:53 PM 27.50 25.34 20.84 33.62 26.24 75.0 Not Reported 4.70 S 8.72 SE 8.72 SE No 0.000 No Precipitation 01/14/2020 11:55 AM 01/14/2020 12:00 PM 0.000 0.000 0.000 0.008 0.020 Not Reported Not Reported
01/14/2020 10:08 PM 27.14 25.16 20.84 33.62 26.24 76.0 Not Reported 2.46 SE 1.34 SE 9.62 SE No 0.000 No Precipitation 01/14/2020 11:55 AM 01/14/2020 12:00 PM 0.000 0.000 0.000 0.008 0.016 Not Reported Not Reported
01/14/2020 10:23 PM 27.14 24.98 20.48 33.62 26.24 75.0 Not Reported 3.13 NW 2.01 W 9.62 SW No 0.000 No Precipitation 01/14/2020 11:55 AM 01/14/2020 12:00 PM 0.000 0.000 0.000 0.008 0.016 Not Reported Not Reported
01/14/2020 10:38 PM 27.14 24.98 20.30 33.62 26.24 75.0 Not Reported 2.91 S 2.24 W 6.26 NW No 0.000 No Precipitation 01/14/2020 11:55 AM 01/14/2020 12:00 PM 0.000 0.000 0.000 0.008 0.016 Not Reported Not Reported
01/14/2020 10:53 PM 26.78 24.62 19.94 33.62 26.24 75.0 Not Reported 3.13 NW 5.59 W 8.28 W No 0.000 No Precipitation 01/14/2020 11:55 AM 01/14/2020 12:00 PM 0.000 0.000 0.000 0.008 0.016 Not Reported Not Reported
01/14/2020 11:08 PM 26.42 24.44 19.76 33.62 26.24 75.0 Not Reported 3.13 NW 3.80 SW 5.59 S No 0.000 No Precipitation 01/14/2020 11:55 AM 01/14/2020 12:00 PM 0.000 0.000 0.000 0.008 0.016 Not Reported Not Reported
01/14/2020 11:23 PM 26.42 24.26 19.94 33.62 25.52 76.0 Not Reported 4.70 W 5.37 S 5.59 NW No 0.000 No Precipitation 01/14/2020 11:55 AM 01/14/2020 12:00 PM 0.000 0.000 0.000 0.008 0.016 Not Reported Not Reported
01/14/2020 11:38 PM 26.24 24.08 19.22 33.62 25.52 74.0 Not Reported 3.58 SW 1.34 SW 6.04 S No 0.000 No Precipitation 01/14/2020 11:55 AM 01/14/2020 12:00 PM 0.000 0.000 0.000 0.008 0.016 Not Reported Not Reported
01/14/2020 11:53 PM 24.26 22.64 19.40 33.26 24.08 81.0 Not Reported 0.67 E 1.57 NW 1.57 SE No 0.000 No Precipitation 01/14/2020 11:55 AM 01/14/2020 12:00 PM 0.000 0.000 0.000 0.004 0.016 Not Reported Not Reported